createdAt,value
2018-08-31T00:00:35.008Z,0.00
2018-08-31T00:01:34.986Z,0.00
2018-08-31T00:02:34.978Z,0.00
2018-08-31T00:03:34.956Z,0.00
2018-08-31T00:04:34.944Z,0.00
2018-08-31T00:05:34.928Z,0.00
2018-08-31T00:06:34.915Z,0.00
2018-08-31T00:07:34.899Z,0.00
2018-08-31T00:08:34.886Z,0.00
2018-08-31T00:09:34.870Z,0.00
2018-08-31T00:10:34.855Z,0.00
2018-08-31T00:11:34.841Z,0.00
2018-08-31T00:12:34.832Z,0.00
2018-08-31T00:13:34.812Z,0.00
2018-08-31T00:14:34.804Z,0.00
2018-08-31T00:15:34.784Z,0.00
2018-08-31T00:16:34.770Z,0.00
2018-08-31T00:17:34.755Z,0.00
2018-08-31T00:18:34.739Z,0.00
2018-08-31T00:19:34.722Z,0.00
2018-08-31T00:20:34.710Z,0.00
2018-08-31T00:21:34.694Z,0.00
2018-08-31T00:22:34.677Z,0.00
2018-08-31T00:23:34.666Z,0.00
2018-08-31T00:24:34.650Z,0.00
2018-08-31T00:25:34.634Z,0.00
2018-08-31T00:26:34.621Z,0.00
2018-08-31T00:27:34.605Z,0.00
2018-08-31T00:28:34.589Z,0.00
2018-08-31T00:29:34.583Z,0.00
2018-08-31T00:30:34.564Z,0.00
2018-08-31T00:31:34.549Z,0.00
2018-08-31T00:32:34.531Z,0.00
2018-08-31T00:33:34.523Z,0.00
2018-08-31T00:34:34.503Z,0.00
2018-08-31T00:35:34.488Z,0.00
2018-08-31T00:36:34.473Z,0.00
2018-08-31T00:37:34.460Z,0.00
2018-08-31T00:38:34.445Z,0.00
2018-08-31T00:39:34.430Z,0.00
2018-08-31T00:40:34.422Z,0.00
2018-08-31T00:41:34.401Z,0.00
2018-08-31T00:42:34.385Z,0.00
2018-08-31T00:43:34.370Z,0.00
2018-08-31T00:44:34.360Z,0.00
2018-08-31T00:45:34.345Z,0.00
2018-08-31T00:46:34.329Z,0.00
2018-08-31T00:47:34.310Z,0.00
2018-08-31T00:48:34.296Z,0.00
2018-08-31T00:49:34.284Z,0.00
2018-08-31T00:50:34.266Z,0.00
2018-08-31T00:51:34.255Z,0.00
2018-08-31T00:52:34.235Z,0.00
2018-08-31T00:53:34.221Z,0.00
2018-08-31T00:54:34.208Z,0.00
2018-08-31T00:55:34.192Z,0.00
2018-08-31T00:56:34.178Z,0.00
2018-08-31T00:57:34.165Z,0.00
2018-08-31T00:58:34.147Z,0.00
2018-08-31T00:59:34.133Z,0.00
2018-08-31T01:00:34.122Z,0.00
2018-08-31T01:01:34.103Z,0.00
2018-08-31T01:02:34.087Z,0.00
2018-08-31T01:03:34.080Z,0.00
2018-08-31T01:04:34.061Z,0.00
2018-08-31T01:05:34.044Z,0.00
2018-08-31T01:06:34.033Z,0.00
2018-08-31T01:07:34.015Z,0.00
2018-08-31T01:08:34.000Z,0.00
2018-08-31T01:09:33.996Z,0.00
2018-08-31T01:10:33.975Z,0.00
2018-08-31T01:11:33.957Z,0.00
2018-08-31T01:12:33.942Z,0.00
2018-08-31T01:13:33.929Z,0.00
2018-08-31T01:14:33.911Z,0.00
2018-08-31T01:15:33.896Z,0.00
2018-08-31T01:16:33.880Z,0.00
2018-08-31T01:17:33.864Z,0.00
2018-08-31T01:18:33.851Z,0.00
2018-08-31T01:19:33.838Z,0.00
2018-08-31T01:20:33.823Z,0.00
2018-08-31T01:21:33.807Z,0.00
2018-08-31T01:22:33.791Z,0.00
2018-08-31T01:23:33.781Z,0.00
2018-08-31T01:24:33.765Z,0.00
2018-08-31T01:25:33.749Z,0.00
2018-08-31T01:26:33.731Z,0.00
2018-08-31T01:27:33.718Z,0.00
2018-08-31T01:28:33.704Z,0.00
2018-08-31T01:29:33.694Z,0.00
2018-08-31T01:30:33.677Z,0.00
2018-08-31T01:31:33.659Z,0.00
2018-08-31T01:32:33.644Z,0.00
2018-08-31T01:33:33.630Z,0.00
2018-08-31T01:34:33.614Z,0.00
2018-08-31T01:35:33.603Z,0.00
2018-08-31T01:36:33.583Z,0.00
2018-08-31T01:37:33.568Z,0.00
2018-08-31T01:38:33.583Z,0.00
2018-08-31T01:39:33.538Z,0.00
2018-08-31T01:40:33.523Z,0.00
2018-08-31T01:41:33.511Z,0.00
2018-08-31T01:42:33.491Z,0.00
2018-08-31T01:43:33.507Z,0.00
2018-08-31T01:44:33.467Z,0.00
2018-08-31T01:45:33.446Z,0.00
2018-08-31T01:46:33.429Z,0.00
2018-08-31T01:47:33.416Z,0.00
2018-08-31T01:48:33.403Z,0.00
2018-08-31T01:49:33.395Z,0.00
2018-08-31T01:50:33.371Z,0.00
2018-08-31T01:51:33.361Z,0.00
2018-08-31T01:52:33.378Z,0.00
2018-08-31T01:53:33.334Z,0.00
2018-08-31T01:54:33.310Z,0.00
2018-08-31T01:55:33.297Z,0.00
2018-08-31T01:56:33.280Z,0.00
2018-08-31T01:57:33.272Z,0.00
2018-08-31T01:58:33.254Z,0.00
2018-08-31T01:59:33.237Z,0.00
2018-08-31T02:00:33.224Z,0.00
2018-08-31T02:01:33.206Z,0.00
2018-08-31T02:02:33.188Z,0.00
2018-08-31T02:03:33.175Z,0.00
2018-08-31T02:04:33.163Z,0.00
2018-08-31T02:05:33.145Z,0.00
2018-08-31T02:06:33.129Z,0.00
2018-08-31T02:07:33.113Z,0.00
2018-08-31T02:08:33.101Z,0.00
2018-08-31T02:09:33.085Z,0.00
2018-08-31T02:10:33.070Z,0.00
2018-08-31T02:11:33.060Z,0.00
2018-08-31T02:12:33.039Z,0.00
2018-08-31T02:13:33.024Z,0.00
2018-08-31T02:14:33.009Z,0.00
2018-08-31T02:15:32.993Z,0.00
2018-08-31T02:16:32.985Z,0.00
2018-08-31T02:17:32.971Z,0.00
2018-08-31T02:18:32.950Z,0.00
2018-08-31T02:19:32.936Z,0.00
2018-08-31T02:20:32.921Z,0.00
2018-08-31T02:21:32.904Z,0.00
2018-08-31T02:22:32.890Z,0.00
2018-08-31T02:23:32.876Z,0.00
2018-08-31T02:24:32.859Z,0.00
2018-08-31T02:25:32.842Z,0.00
2018-08-31T02:26:32.826Z,0.00
2018-08-31T02:27:32.814Z,0.00
2018-08-31T02:28:32.795Z,0.00
2018-08-31T02:29:32.781Z,0.00
2018-08-31T02:30:32.770Z,0.00
2018-08-31T02:31:32.749Z,0.00
2018-08-31T02:32:32.741Z,0.00
2018-08-31T02:33:32.719Z,0.00
2018-08-31T02:34:32.708Z,0.00
2018-08-31T02:35:32.707Z,0.00
2018-08-31T02:36:32.680Z,0.00
2018-08-31T02:37:32.658Z,0.00
2018-08-31T02:38:32.643Z,0.00
2018-08-31T02:39:32.634Z,0.00
2018-08-31T02:40:32.623Z,0.00
2018-08-31T02:41:32.597Z,0.00
2018-08-31T02:42:32.583Z,0.00
2018-08-31T02:43:32.569Z,0.00
2018-08-31T02:44:32.555Z,0.00
2018-08-31T02:45:32.542Z,0.00
2018-08-31T02:46:32.522Z,0.00
2018-08-31T02:47:32.507Z,0.00
2018-08-31T02:48:32.494Z,0.00
2018-08-31T02:49:32.489Z,0.00
2018-08-31T02:50:32.460Z,0.00
2018-08-31T02:51:32.444Z,0.00
2018-08-31T02:52:32.439Z,0.00
2018-08-31T02:53:32.411Z,0.00
2018-08-31T02:54:32.396Z,0.00
2018-08-31T02:55:32.382Z,0.00
2018-08-31T02:56:32.375Z,0.00
2018-08-31T02:57:32.360Z,0.00
2018-08-31T02:58:32.335Z,0.00
2018-08-31T02:59:32.324Z,0.00
2018-08-31T03:00:32.307Z,0.00
2018-08-31T03:01:32.295Z,0.00
2018-08-31T03:02:32.271Z,0.00
2018-08-31T03:03:32.257Z,0.00
2018-08-31T03:04:32.241Z,0.00
2018-08-31T03:05:32.225Z,0.00
2018-08-31T03:06:32.216Z,0.00
2018-08-31T03:07:32.199Z,0.00
2018-08-31T03:08:32.183Z,0.00
2018-08-31T03:09:32.164Z,0.00
2018-08-31T03:10:32.153Z,0.00
2018-08-31T03:11:32.161Z,0.00
2018-08-31T03:12:32.118Z,0.00
2018-08-31T03:13:32.104Z,0.00
2018-08-31T03:14:32.087Z,0.00
2018-08-31T03:15:32.071Z,0.00
2018-08-31T03:16:32.054Z,0.00
2018-08-31T03:17:32.040Z,0.00
2018-08-31T03:18:32.028Z,0.00
2018-08-31T03:19:32.009Z,0.00
2018-08-31T03:20:31.994Z,0.00
2018-08-31T03:21:31.980Z,0.00
2018-08-31T03:22:31.968Z,0.00
2018-08-31T03:23:31.946Z,0.00
2018-08-31T03:24:31.938Z,0.00
2018-08-31T03:25:31.917Z,0.00
2018-08-31T03:26:31.916Z,0.00
2018-08-31T03:27:31.885Z,0.00
2018-08-31T03:28:31.901Z,0.00
2018-08-31T03:29:31.854Z,0.00
2018-08-31T03:30:31.839Z,0.00
2018-08-31T03:31:31.837Z,0.00
2018-08-31T03:32:31.809Z,0.00
2018-08-31T03:33:31.790Z,0.00
2018-08-31T03:34:31.775Z,0.00
2018-08-31T03:35:31.759Z,0.00
2018-08-31T03:36:31.748Z,0.00
2018-08-31T03:37:31.735Z,0.00
2018-08-31T03:38:31.717Z,0.00
2018-08-31T03:39:31.699Z,0.00
2018-08-31T03:40:31.684Z,0.00
2018-08-31T03:41:31.665Z,0.00
2018-08-31T03:42:31.650Z,0.00
2018-08-31T03:43:31.638Z,0.00
2018-08-31T03:44:31.622Z,0.00
2018-08-31T03:45:31.605Z,0.00
2018-08-31T03:46:31.591Z,0.00
2018-08-31T03:47:31.574Z,0.00
2018-08-31T03:48:31.558Z,0.00
2018-08-31T03:49:31.545Z,0.00
2018-08-31T03:50:31.532Z,0.00
2018-08-31T03:51:31.510Z,0.00
2018-08-31T03:52:31.500Z,0.00
2018-08-31T03:53:31.480Z,0.00
2018-08-31T03:54:31.465Z,0.00
2018-08-31T03:55:31.448Z,0.00
2018-08-31T03:56:31.433Z,0.00
2018-08-31T03:57:31.419Z,0.00
2018-08-31T03:58:31.405Z,0.00
2018-08-31T03:59:31.385Z,0.00
2018-08-31T04:00:31.430Z,0.00
2018-08-31T04:01:31.356Z,0.00
2018-08-31T04:02:31.341Z,0.00
2018-08-31T04:03:31.326Z,0.00
2018-08-31T04:04:31.310Z,0.00
2018-08-31T04:05:31.291Z,0.00
2018-08-31T04:06:31.276Z,0.00
2018-08-31T04:07:31.262Z,0.00
2018-08-31T04:08:31.247Z,0.00
2018-08-31T04:09:31.232Z,0.00
2018-08-31T04:10:31.228Z,0.00
2018-08-31T04:11:31.199Z,0.00
2018-08-31T04:12:31.196Z,4.00
2018-08-31T04:13:31.173Z,0.00
2018-08-31T04:14:31.153Z,0.00
2018-08-31T04:15:31.150Z,4.00
2018-08-31T04:16:31.121Z,0.00
2018-08-31T04:17:31.107Z,4.00
2018-08-31T04:18:31.091Z,4.00
2018-08-31T04:19:31.077Z,8.00
2018-08-31T04:20:31.063Z,8.00
2018-08-31T04:21:31.045Z,8.00
2018-08-31T04:22:31.030Z,12.00
2018-08-31T04:23:31.021Z,12.00
2018-08-31T04:24:30.999Z,16.00
2018-08-31T04:25:30.986Z,12.00
2018-08-31T04:26:30.968Z,20.00
2018-08-31T04:27:30.956Z,20.00
2018-08-31T04:28:30.936Z,24.00
2018-08-31T04:29:30.921Z,24.00
2018-08-31T04:30:30.910Z,32.00
2018-08-31T04:31:30.891Z,32.00
2018-08-31T04:32:30.878Z,36.00
2018-08-31T04:33:30.862Z,36.00
2018-08-31T04:34:30.843Z,40.00
2018-08-31T04:35:30.830Z,44.00
2018-08-31T04:36:30.817Z,52.00
2018-08-31T04:37:30.797Z,52.00
2018-08-31T04:38:30.783Z,60.00
2018-08-31T04:39:30.765Z,68.00
2018-08-31T04:40:30.752Z,72.00
2018-08-31T04:41:30.738Z,84.00
2018-08-31T04:42:30.729Z,92.00
2018-08-31T04:43:30.706Z,100.00
2018-08-31T04:44:30.694Z,108.00
2018-08-31T04:45:30.674Z,112.00
2018-08-31T04:46:30.659Z,120.00
2018-08-31T04:47:30.643Z,128.00
2018-08-31T04:48:30.627Z,136.00
2018-08-31T04:49:30.611Z,148.00
2018-08-31T04:50:30.710Z,160.00
2018-08-31T04:51:30.581Z,176.00
2018-08-31T04:52:30.566Z,184.00
2018-08-31T04:53:30.557Z,196.00
2018-08-31T04:54:30.537Z,204.00
2018-08-31T04:55:30.518Z,216.00
2018-08-31T04:56:30.511Z,228.00
2018-08-31T04:57:30.489Z,248.00
2018-08-31T04:58:30.472Z,264.00
2018-08-31T04:59:30.460Z,284.00
2018-08-31T05:00:30.442Z,300.00
2018-08-31T05:01:30.437Z,316.00
2018-08-31T05:02:30.412Z,332.00
2018-08-31T05:03:30.404Z,348.00
2018-08-31T05:04:30.378Z,364.00
2018-08-31T05:05:30.370Z,380.00
2018-08-31T05:06:30.348Z,400.00
2018-08-31T05:07:30.347Z,424.00
2018-08-31T05:08:30.319Z,440.00
2018-08-31T05:09:30.305Z,460.00
2018-08-31T05:10:30.290Z,464.00
2018-08-31T05:11:30.277Z,472.00
2018-08-31T05:12:30.261Z,488.00
2018-08-31T05:13:30.244Z,504.00
2018-08-31T05:14:30.231Z,520.00
2018-08-31T05:15:30.229Z,532.00
2018-08-31T05:16:30.202Z,544.00
2018-08-31T05:17:30.187Z,568.00
2018-08-31T05:18:30.166Z,596.00
2018-08-31T05:19:30.158Z,620.00
2018-08-31T05:20:30.141Z,644.00
2018-08-31T05:21:30.121Z,652.00
2018-08-31T05:22:30.142Z,652.00
2018-08-31T05:23:30.093Z,648.00
2018-08-31T05:24:30.076Z,656.00
2018-08-31T05:25:30.069Z,672.00
2018-08-31T05:26:30.047Z,700.00
2018-08-31T05:27:30.031Z,712.00
2018-08-31T05:28:30.043Z,712.00
2018-08-31T05:29:30.001Z,708.00
2018-08-31T05:30:29.980Z,724.00
2018-08-31T05:31:29.970Z,748.00
2018-08-31T05:32:29.954Z,776.00
2018-08-31T05:33:29.938Z,796.00
2018-08-31T05:34:29.919Z,808.00
2018-08-31T05:35:29.904Z,828.00
2018-08-31T05:36:29.892Z,852.00
2018-08-31T05:37:29.874Z,884.00
2018-08-31T05:38:29.859Z,924.00
2018-08-31T05:39:29.847Z,964.00
2018-08-31T05:40:29.829Z,1004.00
2018-08-31T05:41:29.817Z,1032.00
2018-08-31T05:42:29.798Z,1068.00
2018-08-31T05:43:29.783Z,1112.00
2018-08-31T05:44:29.768Z,1168.00
2018-08-31T05:45:29.754Z,1232.00
2018-08-31T05:46:29.745Z,1304.00
2018-08-31T05:47:29.730Z,1376.00
2018-08-31T05:48:29.711Z,1468.00
2018-08-31T05:49:29.701Z,1576.00
2018-08-31T05:50:29.694Z,1684.00
2018-08-31T05:51:29.666Z,1768.00
2018-08-31T05:52:29.648Z,1828.00
2018-08-31T05:53:29.736Z,1868.00
2018-08-31T05:54:29.619Z,1892.00
2018-08-31T05:55:29.606Z,1904.00
2018-08-31T05:56:29.589Z,1912.00
2018-08-31T05:57:29.575Z,1912.00
2018-08-31T05:58:29.560Z,1924.00
2018-08-31T05:59:29.554Z,1956.00
2018-08-31T06:00:29.529Z,1988.00
2018-08-31T06:01:29.522Z,2028.00
2018-08-31T06:02:29.499Z,2072.00
2018-08-31T06:03:29.495Z,2112.00
2018-08-31T06:04:29.474Z,2160.00
2018-08-31T06:05:29.458Z,2196.00
2018-08-31T06:06:29.448Z,2244.00
2018-08-31T06:07:29.425Z,2288.00
2018-08-31T06:08:29.422Z,2336.00
2018-08-31T06:09:29.396Z,2384.00
2018-08-31T06:10:29.384Z,2436.00
2018-08-31T06:11:29.371Z,2492.00
2018-08-31T06:12:29.350Z,2548.00
2018-08-31T06:13:29.338Z,2576.00
2018-08-31T06:14:29.319Z,2600.00
2018-08-31T06:15:29.310Z,2620.00
2018-08-31T06:16:29.290Z,2656.00
2018-08-31T06:17:29.279Z,2704.00
2018-08-31T06:18:29.263Z,2764.00
2018-08-31T06:19:29.250Z,2820.00
2018-08-31T06:20:29.234Z,2868.00
2018-08-31T06:21:29.218Z,2908.00
2018-08-31T06:22:29.208Z,2920.00
2018-08-31T06:23:29.191Z,2900.00
2018-08-31T06:24:29.175Z,2864.00
2018-08-31T06:25:29.166Z,2836.00
2018-08-31T06:26:29.145Z,2832.00
2018-08-31T06:27:29.134Z,2856.00
2018-08-31T06:28:29.117Z,2900.00
2018-08-31T06:29:29.107Z,2952.00
2018-08-31T06:30:29.089Z,2988.00
2018-08-31T06:31:29.074Z,3028.00
2018-08-31T06:32:29.114Z,3068.00
2018-08-31T06:33:29.059Z,3112.00
2018-08-31T06:34:29.036Z,3164.00
2018-08-31T06:35:29.019Z,3220.00
2018-08-31T06:36:29.003Z,3252.00
2018-08-31T06:37:28.990Z,3260.00
2018-08-31T06:38:28.978Z,3340.00
2018-08-31T06:39:28.962Z,3488.00
2018-08-31T06:40:28.946Z,3736.00
2018-08-31T06:41:28.933Z,4064.00
2018-08-31T06:42:28.918Z,4500.00
2018-08-31T06:43:28.912Z,5524.00
2018-08-31T06:44:28.892Z,6600.00
2018-08-31T06:45:28.874Z,7400.00
2018-08-31T06:46:28.864Z,7432.00
2018-08-31T06:47:28.858Z,7228.00
2018-08-31T06:48:28.847Z,7108.00
2018-08-31T06:49:28.826Z,6952.00
2018-08-31T06:50:28.806Z,6360.00
2018-08-31T06:51:28.851Z,5888.00
2018-08-31T06:52:28.778Z,5820.00
2018-08-31T06:53:28.765Z,5724.00
2018-08-31T06:54:28.749Z,5628.00
2018-08-31T06:55:28.779Z,5620.00
2018-08-31T06:56:28.724Z,5748.00
2018-08-31T06:57:28.708Z,5928.00
2018-08-31T06:58:28.697Z,6108.00
2018-08-31T06:59:28.685Z,6200.00
2018-08-31T07:00:28.670Z,6420.00
2018-08-31T07:01:28.662Z,6572.00
2018-08-31T07:02:28.644Z,6792.00
2018-08-31T07:03:28.636Z,7076.00
2018-08-31T07:04:28.630Z,7452.00
2018-08-31T07:05:28.609Z,7748.00
2018-08-31T07:06:28.597Z,8096.00
2018-08-31T07:07:28.583Z,9056.00
2018-08-31T07:08:28.577Z,14264.00
2018-08-31T07:09:28.560Z,21728.00
2018-08-31T07:10:28.550Z,24864.00
2018-08-31T07:11:28.536Z,24256.00
2018-08-31T07:12:28.577Z,22400.00
2018-08-31T07:13:28.519Z,19968.00
2018-08-31T07:14:28.506Z,16032.00
2018-08-31T07:15:28.490Z,14848.00
2018-08-31T07:16:28.480Z,11312.00
2018-08-31T07:17:28.468Z,16096.00
2018-08-31T07:18:28.476Z,18208.00
2018-08-31T07:19:28.555Z,18048.00
2018-08-31T07:20:28.439Z,16992.00
2018-08-31T07:21:28.429Z,16992.00
2018-08-31T07:22:28.414Z,15680.00
2018-08-31T07:23:28.406Z,17696.00
2018-08-31T07:24:28.391Z,21088.00
2018-08-31T07:25:28.382Z,21248.00
2018-08-31T07:26:28.429Z,23136.00
2018-08-31T07:27:28.358Z,25120.00
2018-08-31T07:28:28.350Z,24864.00
2018-08-31T07:29:28.339Z,22080.00
2018-08-31T07:30:28.327Z,24480.00
2018-08-31T07:31:28.321Z,27520.00
2018-08-31T07:32:28.332Z,26240.00
2018-08-31T07:33:28.297Z,27136.00
2018-08-31T07:34:28.286Z,28224.00
2018-08-31T07:35:28.275Z,24448.00
2018-08-31T07:36:28.413Z,24576.00
2018-08-31T07:37:28.257Z,28128.00
2018-08-31T07:38:28.250Z,30368.00
2018-08-31T07:39:28.240Z,32352.00
2018-08-31T07:40:28.238Z,31744.00
2018-08-31T07:41:28.220Z,33984.00
2018-08-31T07:42:28.227Z,36608.00
2018-08-31T07:43:28.206Z,37504.00
2018-08-31T07:44:28.197Z,38016.00
2018-08-31T07:45:28.187Z,38592.00
2018-08-31T07:46:28.178Z,38400.00
2018-08-31T07:47:28.175Z,37312.00
2018-08-31T07:48:28.161Z,33440.00
2018-08-31T07:49:28.153Z,23072.00
2018-08-31T07:50:28.144Z,28096.00
2018-08-31T07:51:28.136Z,30496.00
2018-08-31T07:52:28.129Z,30272.00
2018-08-31T07:53:28.129Z,21536.00
2018-08-31T07:54:28.112Z,24864.00
2018-08-31T07:55:28.103Z,28384.00
2018-08-31T07:56:28.093Z,38688.00
2018-08-31T07:57:28.087Z,37600.00
2018-08-31T07:58:28.079Z,38400.00
2018-08-31T07:59:28.074Z,36128.00
2018-08-31T08:00:28.063Z,39456.00
2018-08-31T08:01:28.056Z,37536.00
2018-08-31T08:02:28.059Z,34560.00
2018-08-31T08:03:28.044Z,31424.00
2018-08-31T08:04:28.040Z,28320.00
2018-08-31T08:05:28.097Z,31136.00
2018-08-31T08:06:28.023Z,23872.00
2018-08-31T08:07:28.083Z,24896.00
2018-08-31T08:08:28.008Z,26016.00
2018-08-31T08:09:28.012Z,29184.00
2018-08-31T08:10:27.991Z,31744.00
2018-08-31T08:11:27.985Z,31456.00
2018-08-31T08:12:27.978Z,31776.00
2018-08-31T08:13:27.972Z,32480.00
2018-08-31T08:14:27.975Z,33344.00
2018-08-31T08:15:27.960Z,31680.00
2018-08-31T08:16:27.955Z,30368.00
2018-08-31T08:17:27.949Z,28960.00
2018-08-31T08:18:27.938Z,26816.00
2018-08-31T08:19:27.943Z,26080.00
2018-08-31T08:20:27.929Z,25152.00
2018-08-31T08:21:27.919Z,23616.00
2018-08-31T08:22:27.919Z,23744.00
2018-08-31T08:23:27.904Z,22368.00
2018-08-31T08:24:27.898Z,20864.00
2018-08-31T08:25:27.897Z,19840.00
2018-08-31T08:26:27.885Z,16832.00
2018-08-31T08:27:27.879Z,18208.00
2018-08-31T08:28:27.966Z,17408.00
2018-08-31T08:29:27.862Z,17184.00
2018-08-31T08:30:27.855Z,14856.00
2018-08-31T08:31:27.853Z,13436.00
2018-08-31T08:32:27.838Z,13384.00
2018-08-31T08:33:27.834Z,14116.00
2018-08-31T08:34:27.829Z,15072.00
2018-08-31T08:35:27.818Z,16064.00
2018-08-31T08:36:27.808Z,16640.00
2018-08-31T08:37:27.800Z,16032.00
2018-08-31T08:38:27.793Z,13624.00
2018-08-31T08:39:27.783Z,11456.00
2018-08-31T08:40:27.777Z,11356.00
2018-08-31T08:41:27.769Z,10496.00
2018-08-31T08:42:27.771Z,9560.00
2018-08-31T08:43:27.759Z,8304.00
2018-08-31T08:44:27.743Z,7784.00
2018-08-31T08:45:27.735Z,7548.00
2018-08-31T08:46:27.722Z,7328.00
2018-08-31T08:47:27.716Z,7156.00
2018-08-31T08:48:27.853Z,6932.00
2018-08-31T08:49:27.697Z,6804.00
2018-08-31T08:50:27.688Z,6660.00
2018-08-31T08:51:27.680Z,6436.00
2018-08-31T08:52:27.670Z,6180.00
2018-08-31T08:53:27.660Z,5976.00
2018-08-31T08:54:27.655Z,5912.00
2018-08-31T08:55:27.640Z,5928.00
2018-08-31T08:56:27.629Z,6040.00
2018-08-31T08:57:27.622Z,6152.00
2018-08-31T08:58:27.611Z,6312.00
2018-08-31T08:59:27.606Z,6332.00
2018-08-31T09:00:27.595Z,6492.00
2018-08-31T09:01:27.579Z,7096.00
2018-08-31T09:02:27.573Z,6804.00
2018-08-31T09:03:27.561Z,6984.00
2018-08-31T09:04:27.550Z,7308.00
2018-08-31T09:05:27.603Z,7600.00
2018-08-31T09:06:27.528Z,7344.00
2018-08-31T09:07:27.515Z,7404.00
2018-08-31T09:08:27.516Z,8272.00
2018-08-31T09:09:27.501Z,8288.00
2018-08-31T09:10:27.487Z,8052.00
2018-08-31T09:11:27.477Z,8268.00
2018-08-31T09:12:27.532Z,8280.00
2018-08-31T09:13:27.463Z,8128.00
2018-08-31T09:14:27.445Z,8512.00
2018-08-31T09:15:27.433Z,8504.00
2018-08-31T09:16:27.424Z,8772.00
2018-08-31T09:17:27.414Z,8940.00
2018-08-31T09:18:27.418Z,8844.00
2018-08-31T09:19:27.397Z,8804.00
2018-08-31T09:20:27.382Z,8672.00
2018-08-31T09:21:27.372Z,8920.00
2018-08-31T09:22:27.360Z,8880.00
2018-08-31T09:23:27.354Z,8752.00
2018-08-31T09:24:27.395Z,8944.00
2018-08-31T09:25:27.335Z,8948.00
2018-08-31T09:26:27.327Z,8996.00
2018-08-31T09:27:27.313Z,8972.00
2018-08-31T09:28:27.307Z,8744.00
2018-08-31T09:29:27.290Z,8624.00
2018-08-31T09:30:27.278Z,8424.00
2018-08-31T09:31:27.271Z,8292.00
2018-08-31T09:32:27.266Z,8208.00
2018-08-31T09:33:27.254Z,8144.00
2018-08-31T09:34:27.240Z,8116.00
2018-08-31T09:35:27.231Z,8088.00
2018-08-31T09:36:27.219Z,8052.00
2018-08-31T09:37:27.210Z,7948.00
2018-08-31T09:38:27.253Z,7860.00
2018-08-31T09:39:27.189Z,7652.00
2018-08-31T09:40:27.178Z,7496.00
2018-08-31T09:41:27.176Z,7232.00
2018-08-31T09:42:27.158Z,6792.00
2018-08-31T09:43:27.151Z,6140.00
2018-08-31T09:44:27.144Z,5864.00
2018-08-31T09:45:27.128Z,5948.00
2018-08-31T09:46:27.116Z,6312.00
2018-08-31T09:47:27.110Z,6708.00
2018-08-31T09:48:27.097Z,6896.00
2018-08-31T09:49:27.090Z,7052.00
2018-08-31T09:50:27.077Z,7192.00
2018-08-31T09:51:27.067Z,7152.00
2018-08-31T09:52:27.058Z,6928.00
2018-08-31T09:53:27.049Z,6816.00
2018-08-31T09:54:27.037Z,6684.00
2018-08-31T09:55:27.025Z,6496.00
2018-08-31T09:56:27.022Z,6172.00
2018-08-31T09:57:27.058Z,5972.00
2018-08-31T09:58:26.998Z,6000.00
2018-08-31T09:59:26.990Z,5980.00
2018-08-31T10:00:26.975Z,5896.00
2018-08-31T10:01:26.969Z,5824.00
2018-08-31T10:02:26.955Z,5836.00
2018-08-31T10:03:26.947Z,5952.00
2018-08-31T10:04:26.936Z,6076.00
2018-08-31T10:05:26.930Z,6228.00
2018-08-31T10:06:26.913Z,6392.00
2018-08-31T10:07:26.908Z,6476.00
2018-08-31T10:08:26.900Z,6536.00
2018-08-31T10:09:26.885Z,6596.00
2018-08-31T10:10:26.872Z,6528.00
2018-08-31T10:11:26.864Z,6472.00
2018-08-31T10:12:26.854Z,6320.00
2018-08-31T10:13:26.870Z,5944.00
2018-08-31T10:14:26.836Z,5324.00
2018-08-31T10:15:26.825Z,5220.00
2018-08-31T10:16:26.823Z,4748.00
2018-08-31T10:17:26.807Z,4644.00
2018-08-31T10:18:26.793Z,4724.00
2018-08-31T10:19:26.784Z,5000.00
2018-08-31T10:20:26.780Z,5264.00
2018-08-31T10:21:26.762Z,5424.00
2018-08-31T10:22:26.760Z,5420.00
2018-08-31T10:23:26.741Z,5388.00
2018-08-31T10:24:26.732Z,5372.00
2018-08-31T10:25:26.731Z,5392.00
2018-08-31T10:26:26.710Z,5488.00
2018-08-31T10:27:26.702Z,6092.00
2018-08-31T10:28:26.691Z,6264.00
2018-08-31T10:29:26.684Z,6392.00
2018-08-31T10:30:26.670Z,6488.00
2018-08-31T10:31:26.660Z,6540.00
2018-08-31T10:32:26.647Z,6592.00
2018-08-31T10:33:26.641Z,6608.00
2018-08-31T10:34:26.629Z,6688.00
2018-08-31T10:35:26.613Z,6856.00
2018-08-31T10:36:26.609Z,7040.00
2018-08-31T10:37:26.598Z,7208.00
2018-08-31T10:38:26.585Z,7352.00
2018-08-31T10:39:26.586Z,7480.00
2018-08-31T10:40:26.567Z,7592.00
2018-08-31T10:41:26.563Z,7692.00
2018-08-31T10:42:26.548Z,7752.00
2018-08-31T10:43:26.535Z,7804.00
2018-08-31T10:44:26.529Z,7892.00
2018-08-31T10:45:26.515Z,7984.00
2018-08-31T10:46:26.560Z,8032.00
2018-08-31T10:47:26.494Z,8068.00
2018-08-31T10:48:26.497Z,8108.00
2018-08-31T10:49:26.479Z,8168.00
2018-08-31T10:50:26.469Z,8188.00
2018-08-31T10:51:26.456Z,8212.00
2018-08-31T10:52:26.450Z,7928.00
2018-08-31T10:53:26.442Z,7844.00
2018-08-31T10:54:26.427Z,7812.00
2018-08-31T10:55:26.426Z,7860.00
2018-08-31T10:56:26.414Z,7664.00
2018-08-31T10:57:26.398Z,7392.00
2018-08-31T10:58:26.396Z,7124.00
2018-08-31T10:59:26.378Z,6740.00
2018-08-31T11:00:26.369Z,6372.00
2018-08-31T11:01:26.357Z,6028.00
2018-08-31T11:02:26.354Z,5768.00
2018-08-31T11:03:26.339Z,5580.00
2018-08-31T11:04:26.333Z,5564.00
2018-08-31T11:05:26.331Z,5676.00
2018-08-31T11:06:26.307Z,5724.00
2018-08-31T11:07:26.299Z,5808.00
2018-08-31T11:08:26.292Z,6340.00
2018-08-31T11:09:26.281Z,7888.00
2018-08-31T11:10:26.270Z,8056.00
2018-08-31T11:11:26.264Z,8164.00
2018-08-31T11:12:26.273Z,8252.00
2018-08-31T11:13:26.242Z,8308.00
2018-08-31T11:14:26.234Z,8620.00
2018-08-31T11:15:26.227Z,8416.00
2018-08-31T11:16:26.217Z,8484.00
2018-08-31T11:17:26.205Z,9088.00
2018-08-31T11:18:26.191Z,8628.00
2018-08-31T11:19:26.195Z,8344.00
2018-08-31T11:20:26.175Z,8844.00
2018-08-31T11:21:26.169Z,8220.00
2018-08-31T11:22:26.154Z,6396.00
2018-08-31T11:23:26.145Z,5808.00
2018-08-31T11:24:26.137Z,5348.00
2018-08-31T11:25:26.133Z,4992.00
2018-08-31T11:26:26.120Z,4588.00
2018-08-31T11:27:26.107Z,4220.00
2018-08-31T11:28:26.099Z,3932.00
2018-08-31T11:29:26.093Z,3740.00
2018-08-31T11:30:26.080Z,3624.00
2018-08-31T11:31:26.083Z,3556.00
2018-08-31T11:32:26.060Z,3496.00
2018-08-31T11:33:26.052Z,3428.00
2018-08-31T11:34:26.044Z,3396.00
2018-08-31T11:35:26.030Z,3428.00
2018-08-31T11:36:26.022Z,3424.00
2018-08-31T11:37:26.011Z,3460.00
2018-08-31T11:38:26.002Z,3584.00
2018-08-31T11:39:25.990Z,4296.00
2018-08-31T11:40:25.983Z,4324.00
2018-08-31T11:41:25.973Z,6544.00
2018-08-31T11:42:25.960Z,6740.00
2018-08-31T11:43:26.074Z,7080.00
2018-08-31T11:44:25.941Z,7552.00
2018-08-31T11:45:25.935Z,6468.00
2018-08-31T11:46:25.935Z,7440.00
2018-08-31T11:47:25.912Z,7592.00
2018-08-31T11:48:25.903Z,7112.00
2018-08-31T11:49:25.902Z,5844.00
2018-08-31T11:50:25.879Z,5768.00
2018-08-31T11:51:25.872Z,5768.00
2018-08-31T11:52:25.867Z,5748.00
2018-08-31T11:53:25.853Z,5736.00
2018-08-31T11:54:25.843Z,5888.00
2018-08-31T11:55:25.834Z,6396.00
2018-08-31T11:56:25.825Z,6872.00
2018-08-31T11:57:25.815Z,6644.00
2018-08-31T11:58:25.804Z,8816.00
2018-08-31T11:59:25.821Z,9016.00
2018-08-31T12:00:25.786Z,9208.00
2018-08-31T12:01:25.819Z,7960.00
2018-08-31T12:02:25.776Z,9312.00
2018-08-31T12:03:25.760Z,6296.00
2018-08-31T12:04:25.758Z,6136.00
2018-08-31T12:05:25.737Z,6036.00
2018-08-31T12:06:25.734Z,5952.00
2018-08-31T12:07:25.718Z,5872.00
2018-08-31T12:08:25.718Z,5812.00
2018-08-31T12:09:25.705Z,5748.00
2018-08-31T12:10:25.692Z,5736.00
2018-08-31T12:11:25.687Z,5832.00
2018-08-31T12:12:25.679Z,6052.00
2018-08-31T12:13:25.671Z,6344.00
2018-08-31T12:14:25.657Z,6696.00
2018-08-31T12:15:25.646Z,6920.00
2018-08-31T12:16:25.638Z,7620.00
2018-08-31T12:17:25.627Z,7512.00
2018-08-31T12:18:25.616Z,7236.00
2018-08-31T12:19:25.615Z,7740.00
2018-08-31T12:20:25.597Z,7192.00
2018-08-31T12:21:25.588Z,7720.00
2018-08-31T12:22:25.579Z,7040.00
2018-08-31T12:23:25.571Z,7040.00
2018-08-31T12:24:25.560Z,7588.00
2018-08-31T12:25:25.551Z,8332.00
2018-08-31T12:26:25.545Z,6856.00
2018-08-31T12:27:25.532Z,6484.00
2018-08-31T12:28:25.527Z,6132.00
2018-08-31T12:29:25.518Z,5920.00